sensor_id;sensor_type;location;lat;lon;timestamp;temperature;humidity
79698;SHT31;69168;42.708;23.286;2023-06-22T00:01:27;20.95;67.91
79698;SHT31;69168;42.708;23.286;2023-06-22T00:03:52;20.82;67.89
79698;SHT31;69168;42.708;23.286;2023-06-22T00:06:18;20.81;67.94
79698;SHT31;69168;42.708;23.286;2023-06-22T00:08:43;20.98;67.56
79698;SHT31;69168;42.708;23.286;2023-06-22T00:11:09;21.07;67.38
79698;SHT31;69168;42.708;23.286;2023-06-22T00:13:34;21.10;66.97
79698;SHT31;69168;42.708;23.286;2023-06-22T00:16:00;21.04;67.79
79698;SHT31;69168;42.708;23.286;2023-06-22T00:18:25;21.03;67.72
79698;SHT31;69168;42.708;23.286;2023-06-22T00:20:54;21.06;67.58
79698;SHT31;69168;42.708;23.286;2023-06-22T00:23:23;21.11;67.11
79698;SHT31;69168;42.708;23.286;2023-06-22T00:25:49;21.16;67.00
79698;SHT31;69168;42.708;23.286;2023-06-22T00:28:14;21.06;67.72
79698;SHT31;69168;42.708;23.286;2023-06-22T00:30:40;21.06;67.67
79698;SHT31;69168;42.708;23.286;2023-06-22T00:33:05;20.96;68.28
79698;SHT31;69168;42.708;23.286;2023-06-22T00:35:33;20.89;68.34
79698;SHT31;69168;42.708;23.286;2023-06-22T00:37:59;20.85;68.47
79698;SHT31;69168;42.708;23.286;2023-06-22T00:40:33;20.82;68.69
79698;SHT31;69168;42.708;23.286;2023-06-22T00:42:59;20.69;68.91
79698;SHT31;69168;42.708;23.286;2023-06-22T00:45:25;20.62;68.98
79698;SHT31;69168;42.708;23.286;2023-06-22T00:47:56;20.72;68.79
79698;SHT31;69168;42.708;23.286;2023-06-22T00:50:24;20.82;67.74
79698;SHT31;69168;42.708;23.286;2023-06-22T00:52:55;20.75;67.42
79698;SHT31;69168;42.708;23.286;2023-06-22T00:55:24;20.67;66.82
79698;SHT31;69168;42.708;23.286;2023-06-22T00:57:53;20.61;66.96
79698;SHT31;69168;42.708;23.286;2023-06-22T01:00:23;20.49;67.67
79698;SHT31;69168;42.708;23.286;2023-06-22T01:02:50;20.54;67.38
79698;SHT31;69168;42.708;23.286;2023-06-22T01:05:21;20.43;68.04
79698;SHT31;69168;42.708;23.286;2023-06-22T01:10:46;20.31;68.61
79698;SHT31;69168;42.708;23.286;2023-06-22T01:13:21;20.48;67.91
79698;SHT31;69168;42.708;23.286;2023-06-22T01:18:41;20.52;68.25
79698;SHT31;69168;42.708;23.286;2023-06-22T01:21:09;20.56;68.08
79698;SHT31;69168;42.708;23.286;2023-06-22T01:26:38;20.52;68.03
79698;SHT31;69168;42.708;23.286;2023-06-22T01:29:05;20.40;68.93
79698;SHT31;69168;42.708;23.286;2023-06-22T01:31:33;20.14;69.58
79698;SHT31;69168;42.708;23.286;2023-06-22T01:34:03;20.33;68.90
79698;SHT31;69168;42.708;23.286;2023-06-22T01:36:30;20.38;68.56
79698;SHT31;69168;42.708;23.286;2023-06-22T01:38:59;20.16;69.32
79698;SHT31;69168;42.708;23.286;2023-06-22T01:41:25;19.97;70.03
79698;SHT31;69168;42.708;23.286;2023-06-22T01:43:51;19.97;70.47
79698;SHT31;69168;42.708;23.286;2023-06-22T01:46:17;20.00;70.40
79698;SHT31;69168;42.708;23.286;2023-06-22T01:48:45;19.93;70.53
79698;SHT31;69168;42.708;23.286;2023-06-22T01:51:11;20.09;70.00
79698;SHT31;69168;42.708;23.286;2023-06-22T01:53:37;20.07;70.23
79698;SHT31;69168;42.708;23.286;2023-06-22T01:56:03;20.06;70.10
79698;SHT31;69168;42.708;23.286;2023-06-22T01:58:30;19.85;70.24
79698;SHT31;69168;42.708;23.286;2023-06-22T02:01:03;19.82;70.29
79698;SHT31;69168;42.708;23.286;2023-06-22T02:03:55;19.80;70.20
79698;SHT31;69168;42.708;23.286;2023-06-22T02:06:31;19.92;69.86
79698;SHT31;69168;42.708;23.286;2023-06-22T02:09:02;19.90;69.71
79698;SHT31;69168;42.708;23.286;2023-06-22T02:11:28;19.90;69.76
79698;SHT31;69168;42.708;23.286;2023-06-22T02:13:56;19.76;69.98
79698;SHT31;69168;42.708;23.286;2023-06-22T02:16:22;19.68;69.84
79698;SHT31;69168;42.708;23.286;2023-06-22T02:18:51;19.37;70.70
79698;SHT31;69168;42.708;23.286;2023-06-22T02:21:20;19.14;71.25
79698;SHT31;69168;42.708;23.286;2023-06-22T02:23:46;19.24;70.93
79698;SHT31;69168;42.708;23.286;2023-06-22T02:26:11;19.44;70.96
79698;SHT31;69168;42.708;23.286;2023-06-22T02:28:37;19.41;70.83
79698;SHT31;69168;42.708;23.286;2023-06-22T02:31:03;19.55;70.69
79698;SHT31;69168;42.708;23.286;2023-06-22T02:33:28;19.59;70.11
79698;SHT31;69168;42.708;23.286;2023-06-22T02:35:54;19.55;70.21
79698;SHT31;69168;42.708;23.286;2023-06-22T02:38:19;19.63;70.34
79698;SHT31;69168;42.708;23.286;2023-06-22T02:40:46;19.72;70.51
79698;SHT31;69168;42.708;23.286;2023-06-22T02:43:12;19.62;70.39
79698;SHT31;69168;42.708;23.286;2023-06-22T02:45:37;19.45;70.35
79698;SHT31;69168;42.708;23.286;2023-06-22T02:48:03;19.34;70.68
79698;SHT31;69168;42.708;23.286;2023-06-22T02:50:28;19.47;70.78
79698;SHT31;69168;42.708;23.286;2023-06-22T02:52:54;19.38;71.34
79698;SHT31;69168;42.708;23.286;2023-06-22T02:55:19;19.43;71.13
79698;SHT31;69168;42.708;23.286;2023-06-22T02:57:45;19.48;71.03
79698;SHT31;69168;42.708;23.286;2023-06-22T03:00:12;19.37;71.28
79698;SHT31;69168;42.708;23.286;2023-06-22T03:02:46;19.13;70.66
79698;SHT31;69168;42.708;23.286;2023-06-22T03:05:12;19.04;70.93
79698;SHT31;69168;42.708;23.286;2023-06-22T03:07:42;18.97;71.21
79698;SHT31;69168;42.708;23.286;2023-06-22T03:10:12;18.86;72.04
79698;SHT31;69168;42.708;23.286;2023-06-22T03:12:38;18.86;72.36
79698;SHT31;69168;42.708;23.286;2023-06-22T03:15:06;18.97;72.04
79698;SHT31;69168;42.708;23.286;2023-06-22T03:17:31;18.99;72.12
79698;SHT31;69168;42.708;23.286;2023-06-22T03:19:57;19.25;71.94
79698;SHT31;69168;42.708;23.286;2023-06-22T03:22:22;19.21;71.89
79698;SHT31;69168;42.708;23.286;2023-06-22T03:24:47;19.38;70.99
79698;SHT31;69168;42.708;23.286;2023-06-22T03:27:13;19.17;71.18
79698;SHT31;69168;42.708;23.286;2023-06-22T03:29:38;19.16;71.06
79698;SHT31;69168;42.708;23.286;2023-06-22T03:32:04;19.11;70.97
79698;SHT31;69168;42.708;23.286;2023-06-22T03:34:31;19.10;71.24
79698;SHT31;69168;42.708;23.286;2023-06-22T03:36:58;18.99;71.47
79698;SHT31;69168;42.708;23.286;2023-06-22T03:39:24;18.95;71.64
79698;SHT31;69168;42.708;23.286;2023-06-22T03:41:49;19.17;71.27
79698;SHT31;69168;42.708;23.286;2023-06-22T03:44:15;19.27;70.63
79698;SHT31;69168;42.708;23.286;2023-06-22T03:46:40;19.14;70.95
79698;SHT31;69168;42.708;23.286;2023-06-22T03:49:06;18.93;71.54
79698;SHT31;69168;42.708;23.286;2023-06-22T03:51:32;19.02;71.07
79698;SHT31;69168;42.708;23.286;2023-06-22T03:53:58;19.21;70.26
79698;SHT31;69168;42.708;23.286;2023-06-22T03:56:23;18.97;70.76
79698;SHT31;69168;42.708;23.286;2023-06-22T03:58:49;18.99;70.73
79698;SHT31;69168;42.708;23.286;2023-06-22T04:01:14;19.17;70.82
79698;SHT31;69168;42.708;23.286;2023-06-22T04:03:42;19.25;70.16
79698;SHT31;69168;42.708;23.286;2023-06-22T04:06:08;19.35;69.94
79698;SHT31;69168;42.708;23.286;2023-06-22T04:08:33;19.39;70.05
79698;SHT31;69168;42.708;23.286;2023-06-22T04:10:59;19.52;69.83
79698;SHT31;69168;42.708;23.286;2023-06-22T04:13:24;19.58;69.82
79698;SHT31;69168;42.708;23.286;2023-06-22T04:15:50;19.68;69.44
79698;SHT31;69168;42.708;23.286;2023-06-22T04:18:15;19.69;69.38
79698;SHT31;69168;42.708;23.286;2023-06-22T04:20:41;19.75;69.57
79698;SHT31;69168;42.708;23.286;2023-06-22T04:23:06;19.79;70.02
79698;SHT31;69168;42.708;23.286;2023-06-22T04:25:32;19.83;70.13
79698;SHT31;69168;42.708;23.286;2023-06-22T04:27:57;19.78;69.62
79698;SHT31;69168;42.708;23.286;2023-06-22T04:30:23;19.90;69.74
79698;SHT31;69168;42.708;23.286;2023-06-22T04:32:48;19.75;69.51
79698;SHT31;69168;42.708;23.286;2023-06-22T04:35:25;19.87;68.72
79698;SHT31;69168;42.708;23.286;2023-06-22T04:37:52;19.92;68.72
79698;SHT31;69168;42.708;23.286;2023-06-22T04:40:22;19.92;69.07
79698;SHT31;69168;42.708;23.286;2023-06-22T04:42:48;20.00;69.06
79698;SHT31;69168;42.708;23.286;2023-06-22T04:45:19;20.01;68.74
79698;SHT31;69168;42.708;23.286;2023-06-22T04:47:45;20.12;68.65
79698;SHT31;69168;42.708;23.286;2023-06-22T04:50:11;20.13;68.90
79698;SHT31;69168;42.708;23.286;2023-06-22T04:52:37;19.99;68.70
79698;SHT31;69168;42.708;23.286;2023-06-22T04:55:03;19.96;68.77
79698;SHT31;69168;42.708;23.286;2023-06-22T04:57:29;19.94;69.01
79698;SHT31;69168;42.708;23.286;2023-06-22T04:59:57;20.01;69.21
79698;SHT31;69168;42.708;23.286;2023-06-22T05:02:26;20.00;69.69
79698;SHT31;69168;42.708;23.286;2023-06-22T05:04:53;20.24;69.27
79698;SHT31;69168;42.708;23.286;2023-06-22T05:07:22;20.38;68.45
79698;SHT31;69168;42.708;23.286;2023-06-22T05:09:50;20.47;68.15
79698;SHT31;69168;42.708;23.286;2023-06-22T05:12:16;20.44;68.22
79698;SHT31;69168;42.708;23.286;2023-06-22T05:14:41;20.44;68.38
79698;SHT31;69168;42.708;23.286;2023-06-22T05:17:07;20.48;68.47
79698;SHT31;69168;42.708;23.286;2023-06-22T05:19:38;20.55;67.94
79698;SHT31;69168;42.708;23.286;2023-06-22T05:22:04;20.67;67.71
79698;SHT31;69168;42.708;23.286;2023-06-22T05:24:30;20.76;67.86
79698;SHT31;69168;42.708;23.286;2023-06-22T05:26:55;20.81;67.10
79698;SHT31;69168;42.708;23.286;2023-06-22T05:29:21;20.79;66.61
79698;SHT31;69168;42.708;23.286;2023-06-22T05:31:47;20.82;66.15
79698;SHT31;69168;42.708;23.286;2023-06-22T05:34:13;20.78;66.34
79698;SHT31;69168;42.708;23.286;2023-06-22T05:36:38;20.82;66.66
79698;SHT31;69168;42.708;23.286;2023-06-22T05:39:14;20.99;66.52
79698;SHT31;69168;42.708;23.286;2023-06-22T05:41:40;21.04;66.79
79698;SHT31;69168;42.708;23.286;2023-06-22T05:44:06;21.26;66.00
79698;SHT31;69168;42.708;23.286;2023-06-22T05:46:31;21.22;65.66
79698;SHT31;69168;42.708;23.286;2023-06-22T05:48:57;21.27;66.04
79698;SHT31;69168;42.708;23.286;2023-06-22T05:51:22;21.44;64.45
79698;SHT31;69168;42.708;23.286;2023-06-22T05:53:47;21.47;64.59
79698;SHT31;69168;42.708;23.286;2023-06-22T05:56:15;21.36;64.62
79698;SHT31;69168;42.708;23.286;2023-06-22T05:58:41;21.24;64.55
79698;SHT31;69168;42.708;23.286;2023-06-22T06:01:06;21.33;64.39
79698;SHT31;69168;42.708;23.286;2023-06-22T06:03:32;21.45;64.53
79698;SHT31;69168;42.708;23.286;2023-06-22T06:05:57;21.61;63.36
79698;SHT31;69168;42.708;23.286;2023-06-22T06:08:23;21.81;62.38
79698;SHT31;69168;42.708;23.286;2023-06-22T06:10:48;21.72;62.91
79698;SHT31;69168;42.708;23.286;2023-06-22T06:13:14;21.77;63.19
79698;SHT31;69168;42.708;23.286;2023-06-22T06:15:39;21.82;62.22
79698;SHT31;69168;42.708;23.286;2023-06-22T06:18:05;21.72;63.22
79698;SHT31;69168;42.708;23.286;2023-06-22T06:20:32;21.81;62.89
79698;SHT31;69168;42.708;23.286;2023-06-22T06:22:57;21.96;62.44
79698;SHT31;69168;42.708;23.286;2023-06-22T06:25:23;22.03;62.68
79698;SHT31;69168;42.708;23.286;2023-06-22T06:27:51;22.09;63.20
79698;SHT31;69168;42.708;23.286;2023-06-22T06:30:17;22.23;62.06
79698;SHT31;69168;42.708;23.286;2023-06-22T06:32:44;22.35;61.77
79698;SHT31;69168;42.708;23.286;2023-06-22T06:35:11;22.75;60.18
79698;SHT31;69168;42.708;23.286;2023-06-22T06:37:38;22.65;60.87
79698;SHT31;69168;42.708;23.286;2023-06-22T06:40:08;22.74;61.06
79698;SHT31;69168;42.708;23.286;2023-06-22T06:42:39;22.76;60.46
79698;SHT31;69168;42.708;23.286;2023-06-22T06:45:08;22.89;59.70
79698;SHT31;69168;42.708;23.286;2023-06-22T06:47:33;22.89;60.06
79698;SHT31;69168;42.708;23.286;2023-06-22T06:49:59;22.95;60.76
79698;SHT31;69168;42.708;23.286;2023-06-22T06:52:25;22.99;60.82
79698;SHT31;69168;42.708;23.286;2023-06-22T06:54:50;23.30;59.81
79698;SHT31;69168;42.708;23.286;2023-06-22T06:57:17;23.39;59.27
79698;SHT31;69168;42.708;23.286;2023-06-22T06:59:43;23.47;58.72
79698;SHT31;69168;42.708;23.286;2023-06-22T07:02:08;23.60;59.37
79698;SHT31;69168;42.708;23.286;2023-06-22T07:04:33;23.75;58.99
79698;SHT31;69168;42.708;23.286;2023-06-22T07:07:01;23.75;59.40
79698;SHT31;69168;42.708;23.286;2023-06-22T07:09:27;23.78;59.19
79698;SHT31;69168;42.708;23.286;2023-06-22T07:11:52;23.79;59.42
79698;SHT31;69168;42.708;23.286;2023-06-22T07:14:18;23.82;58.78
79698;SHT31;69168;42.708;23.286;2023-06-22T07:16:43;23.84;58.92
79698;SHT31;69168;42.708;23.286;2023-06-22T07:19:11;23.77;59.39
79698;SHT31;69168;42.708;23.286;2023-06-22T07:21:37;23.95;59.85
79698;SHT31;69168;42.708;23.286;2023-06-22T07:24:02;23.94;59.92
79698;SHT31;69168;42.708;23.286;2023-06-22T07:26:28;23.99;58.93
79698;SHT31;69168;42.708;23.286;2023-06-22T07:28:53;23.97;58.10
79698;SHT31;69168;42.708;23.286;2023-06-22T07:31:18;23.95;58.08
79698;SHT31;69168;42.708;23.286;2023-06-22T07:33:44;24.05;58.47
79698;SHT31;69168;42.708;23.286;2023-06-22T07:36:09;24.12;59.17
79698;SHT31;69168;42.708;23.286;2023-06-22T07:38:35;24.25;59.09
79698;SHT31;69168;42.708;23.286;2023-06-22T07:41:01;24.26;59.53
79698;SHT31;69168;42.708;23.286;2023-06-22T07:43:27;24.29;58.56
79698;SHT31;69168;42.708;23.286;2023-06-22T07:45:55;24.32;58.19
79698;SHT31;69168;42.708;23.286;2023-06-22T07:48:21;24.30;57.32
79698;SHT31;69168;42.708;23.286;2023-06-22T07:50:47;24.37;57.50
79698;SHT31;69168;42.708;23.286;2023-06-22T07:53:12;24.50;58.41
79698;SHT31;69168;42.708;23.286;2023-06-22T07:55:38;24.75;58.71
79698;SHT31;69168;42.708;23.286;2023-06-22T07:58:03;24.83;58.87
79698;SHT31;69168;42.708;23.286;2023-06-22T08:00:29;24.80;57.92
79698;SHT31;69168;42.708;23.286;2023-06-22T08:02:54;24.90;57.82
79698;SHT31;69168;42.708;23.286;2023-06-22T08:05:20;24.92;58.36
79698;SHT31;69168;42.708;23.286;2023-06-22T08:07:45;24.83;58.51
79698;SHT31;69168;42.708;23.286;2023-06-22T08:10:11;24.83;59.08
79698;SHT31;69168;42.708;23.286;2023-06-22T08:12:38;24.74;58.23
79698;SHT31;69168;42.708;23.286;2023-06-22T08:15:03;24.68;57.75
79698;SHT31;69168;42.708;23.286;2023-06-22T08:17:29;24.63;57.78
79698;SHT31;69168;42.708;23.286;2023-06-22T08:19:56;24.54;58.17
79698;SHT31;69168;42.708;23.286;2023-06-22T08:22:22;24.59;58.12
79698;SHT31;69168;42.708;23.286;2023-06-22T08:24:47;24.63;59.40
79698;SHT31;69168;42.708;23.286;2023-06-22T08:27:13;24.71;59.77
79698;SHT31;69168;42.708;23.286;2023-06-22T08:29:40;24.80;59.43
79698;SHT31;69168;42.708;23.286;2023-06-22T08:32:08;24.80;59.92
79698;SHT31;69168;42.708;23.286;2023-06-22T08:34:34;24.88;59.75
79698;SHT31;69168;42.708;23.286;2023-06-22T08:37:00;24.98;59.24
79698;SHT31;69168;42.708;23.286;2023-06-22T08:39:25;24.95;58.10
79698;SHT31;69168;42.708;23.286;2023-06-22T08:41:51;24.99;57.43
79698;SHT31;69168;42.708;23.286;2023-06-22T08:44:18;24.94;58.20
79698;SHT31;69168;42.708;23.286;2023-06-22T08:46:43;24.90;58.14
79698;SHT31;69168;42.708;23.286;2023-06-22T08:49:09;25.20;57.56
79698;SHT31;69168;42.708;23.286;2023-06-22T08:51:35;25.15;57.26
79698;SHT31;69168;42.708;23.286;2023-06-22T08:54:02;25.12;55.31
79698;SHT31;69168;42.708;23.286;2023-06-22T08:56:28;25.30;55.71
79698;SHT31;69168;42.708;23.286;2023-06-22T08:58:53;25.20;56.21
79698;SHT31;69168;42.708;23.286;2023-06-22T09:01:19;25.16;56.38
79698;SHT31;69168;42.708;23.286;2023-06-22T09:03:44;25.19;57.34
79698;SHT31;69168;42.708;23.286;2023-06-22T09:06:19;25.29;58.37
79698;SHT31;69168;42.708;23.286;2023-06-22T09:08:44;25.30;57.44
79698;SHT31;69168;42.708;23.286;2023-06-22T09:11:10;25.42;54.95
79698;SHT31;69168;42.708;23.286;2023-06-22T09:13:35;25.40;55.35
79698;SHT31;69168;42.708;23.286;2023-06-22T09:16:02;25.49;55.89
79698;SHT31;69168;42.708;23.286;2023-06-22T09:18:27;25.54;56.48
79698;SHT31;69168;42.708;23.286;2023-06-22T09:20:53;25.84;54.80
79698;SHT31;69168;42.708;23.286;2023-06-22T09:23:18;25.98;53.14
79698;SHT31;69168;42.708;23.286;2023-06-22T09:25:44;25.80;54.90
79698;SHT31;69168;42.708;23.286;2023-06-22T09:28:09;25.75;56.20
79698;SHT31;69168;42.708;23.286;2023-06-22T09:30:35;25.80;54.86
79698;SHT31;69168;42.708;23.286;2023-06-22T09:33:00;25.81;54.19
79698;SHT31;69168;42.708;23.286;2023-06-22T09:35:26;26.04;54.43
79698;SHT31;69168;42.708;23.286;2023-06-22T09:37:51;26.01;54.08
79698;SHT31;69168;42.708;23.286;2023-06-22T09:40:17;26.09;53.85
79698;SHT31;69168;42.708;23.286;2023-06-22T09:42:42;26.11;54.73
79698;SHT31;69168;42.708;23.286;2023-06-22T09:45:08;26.17;54.95
79698;SHT31;69168;42.708;23.286;2023-06-22T09:47:34;26.19;55.10
79698;SHT31;69168;42.708;23.286;2023-06-22T09:49:59;26.22;54.72
79698;SHT31;69168;42.708;23.286;2023-06-22T09:52:25;26.49;54.06
79698;SHT31;69168;42.708;23.286;2023-06-22T09:54:51;26.36;54.29
79698;SHT31;69168;42.708;23.286;2023-06-22T09:57:16;26.43;54.42
79698;SHT31;69168;42.708;23.286;2023-06-22T09:59:42;26.53;51.44
79698;SHT31;69168;42.708;23.286;2023-06-22T10:02:07;26.77;50.57
79698;SHT31;69168;42.708;23.286;2023-06-22T10:04:34;26.93;50.40
79698;SHT31;69168;42.708;23.286;2023-06-22T10:07:00;26.86;51.42
79698;SHT31;69168;42.708;23.286;2023-06-22T10:09:26;26.86;50.49
79698;SHT31;69168;42.708;23.286;2023-06-22T10:11:51;26.86;50.10
79698;SHT31;69168;42.708;23.286;2023-06-22T10:14:17;26.91;49.24
79698;SHT31;69168;42.708;23.286;2023-06-22T10:16:42;26.90;48.51
79698;SHT31;69168;42.708;23.286;2023-06-22T10:19:08;27.01;48.83
79698;SHT31;69168;42.708;23.286;2023-06-22T10:21:33;27.02;49.34
79698;SHT31;69168;42.708;23.286;2023-06-22T10:23:59;27.22;49.16
79698;SHT31;69168;42.708;23.286;2023-06-22T10:26:31;27.21;47.93
79698;SHT31;69168;42.708;23.286;2023-06-22T10:28:56;27.25;48.69
79698;SHT31;69168;42.708;23.286;2023-06-22T10:31:22;27.35;47.35
79698;SHT31;69168;42.708;23.286;2023-06-22T10:33:48;27.49;47.42
79698;SHT31;69168;42.708;23.286;2023-06-22T10:36:14;27.59;47.51
79698;SHT31;69168;42.708;23.286;2023-06-22T10:38:40;27.57;46.98
79698;SHT31;69168;42.708;23.286;2023-06-22T10:41:05;27.76;48.96
79698;SHT31;69168;42.708;23.286;2023-06-22T10:43:31;27.96;50.36
79698;SHT31;69168;42.708;23.286;2023-06-22T10:45:56;28.15;50.16
79698;SHT31;69168;42.708;23.286;2023-06-22T10:48:22;28.28;49.45
79698;SHT31;69168;42.708;23.286;2023-06-22T10:50:47;28.42;48.66
79698;SHT31;69168;42.708;23.286;2023-06-22T10:53:13;28.51;47.37
79698;SHT31;69168;42.708;23.286;2023-06-22T10:55:38;28.59;44.80
79698;SHT31;69168;42.708;23.286;2023-06-22T10:58:04;28.45;44.25
79698;SHT31;69168;42.708;23.286;2023-06-22T11:00:30;28.63;44.88
79698;SHT31;69168;42.708;23.286;2023-06-22T11:02:55;28.89;43.85
79698;SHT31;69168;42.708;23.286;2023-06-22T11:05:20;28.84;44.47
79698;SHT31;69168;42.708;23.286;2023-06-22T11:07:46;28.90;43.49
79698;SHT31;69168;42.708;23.286;2023-06-22T11:10:13;28.86;42.75
79698;SHT31;69168;42.708;23.286;2023-06-22T11:12:38;29.10;43.03
79698;SHT31;69168;42.708;23.286;2023-06-22T11:15:04;29.08;42.41
79698;SHT31;69168;42.708;23.286;2023-06-22T11:17:30;29.20;42.24
79698;SHT31;69168;42.708;23.286;2023-06-22T11:19:55;29.54;41.19
79698;SHT31;69168;42.708;23.286;2023-06-22T11:22:21;29.89;41.45
79698;SHT31;69168;42.708;23.286;2023-06-22T11:24:46;30.17;40.20
79698;SHT31;69168;42.708;23.286;2023-06-22T11:27:11;30.80;39.51
79698;SHT31;69168;42.708;23.286;2023-06-22T11:29:37;31.19;39.05
79698;SHT31;69168;42.708;23.286;2023-06-22T11:32:06;30.82;38.92
79698;SHT31;69168;42.708;23.286;2023-06-22T11:34:32;30.16;40.24
79698;SHT31;69168;42.708;23.286;2023-06-22T11:36:57;29.55;41.38
79698;SHT31;69168;42.708;23.286;2023-06-22T11:39:23;29.47;40.68
79698;SHT31;69168;42.708;23.286;2023-06-22T11:41:48;29.37;42.55
79698;SHT31;69168;42.708;23.286;2023-06-22T11:44:14;29.20;42.96
79698;SHT31;69168;42.708;23.286;2023-06-22T11:46:39;28.84;45.32
79698;SHT31;69168;42.708;23.286;2023-06-22T11:49:05;28.55;47.54
79698;SHT31;69168;42.708;23.286;2023-06-22T11:51:30;28.59;47.73
79698;SHT31;69168;42.708;23.286;2023-06-22T11:53:56;28.47;48.24
79698;SHT31;69168;42.708;23.286;2023-06-22T11:56:22;28.38;48.77
79698;SHT31;69168;42.708;23.286;2023-06-22T11:58:47;28.11;48.12
79698;SHT31;69168;42.708;23.286;2023-06-22T12:01:13;28.03;49.74
79698;SHT31;69168;42.708;23.286;2023-06-22T12:03:40;27.90;49.84
79698;SHT31;69168;42.708;23.286;2023-06-22T12:06:06;27.94;50.13
79698;SHT31;69168;42.708;23.286;2023-06-22T12:08:31;27.83;51.66
79698;SHT31;69168;42.708;23.286;2023-06-22T12:10:57;27.87;53.13
79698;SHT31;69168;42.708;23.286;2023-06-22T12:13:22;27.77;51.36
79698;SHT31;69168;42.708;23.286;2023-06-22T12:15:47;27.56;53.68
79698;SHT31;69168;42.708;23.286;2023-06-22T12:18:13;27.37;55.74
79698;SHT31;69168;42.708;23.286;2023-06-22T12:20:42;26.86;59.95
79698;SHT31;69168;42.708;23.286;2023-06-22T12:23:07;25.94;65.51
79698;SHT31;69168;42.708;23.286;2023-06-22T12:25:33;24.94;67.25
79698;SHT31;69168;42.708;23.286;2023-06-22T12:27:58;24.67;69.06
79698;SHT31;69168;42.708;23.286;2023-06-22T12:30:24;24.16;69.09
79698;SHT31;69168;42.708;23.286;2023-06-22T12:32:49;23.92;69.10
79698;SHT31;69168;42.708;23.286;2023-06-22T12:35:16;23.73;68.43
79698;SHT31;69168;42.708;23.286;2023-06-22T12:37:42;23.63;69.19
79698;SHT31;69168;42.708;23.286;2023-06-22T12:40:08;23.36;66.92
79698;SHT31;69168;42.708;23.286;2023-06-22T12:42:34;23.27;65.30
79698;SHT31;69168;42.708;23.286;2023-06-22T12:44:59;23.61;67.09
79698;SHT31;69168;42.708;23.286;2023-06-22T12:47:24;23.63;64.78
79698;SHT31;69168;42.708;23.286;2023-06-22T12:49:50;23.74;64.39
79698;SHT31;69168;42.708;23.286;2023-06-22T12:52:15;23.74;64.10
79698;SHT31;69168;42.708;23.286;2023-06-22T12:54:41;23.92;62.42
79698;SHT31;69168;42.708;23.286;2023-06-22T12:57:06;24.12;62.65
79698;SHT31;69168;42.708;23.286;2023-06-22T12:59:32;24.30;62.99
79698;SHT31;69168;42.708;23.286;2023-06-22T13:01:57;24.59;63.09
79698;SHT31;69168;42.708;23.286;2023-06-22T13:04:23;24.74;61.96
79698;SHT31;69168;42.708;23.286;2023-06-22T13:06:48;24.91;60.29
79698;SHT31;69168;42.708;23.286;2023-06-22T13:09:15;24.87;59.60
79698;SHT31;69168;42.708;23.286;2023-06-22T13:11:42;24.92;59.14
79698;SHT31;69168;42.708;23.286;2023-06-22T13:14:07;24.95;60.43
79698;SHT31;69168;42.708;23.286;2023-06-22T13:16:33;24.94;61.70
79698;SHT31;69168;42.708;23.286;2023-06-22T13:18:58;24.94;61.61
79698;SHT31;69168;42.708;23.286;2023-06-22T13:21:24;24.94;61.95
79698;SHT31;69168;42.708;23.286;2023-06-22T13:23:49;24.95;62.19
79698;SHT31;69168;42.708;23.286;2023-06-22T13:26:15;24.95;61.35
79698;SHT31;69168;42.708;23.286;2023-06-22T13:28:40;24.94;61.20
79698;SHT31;69168;42.708;23.286;2023-06-22T13:31:06;24.99;60.44
79698;SHT31;69168;42.708;23.286;2023-06-22T13:33:31;24.96;61.40
79698;SHT31;69168;42.708;23.286;2023-06-22T13:35:57;25.18;58.22
79698;SHT31;69168;42.708;23.286;2023-06-22T13:38:22;25.22;59.57
79698;SHT31;69168;42.708;23.286;2023-06-22T13:40:49;25.23;61.58
79698;SHT31;69168;42.708;23.286;2023-06-22T13:43:14;25.08;63.69
79698;SHT31;69168;42.708;23.286;2023-06-22T13:45:41;24.61;67.32
79698;SHT31;69168;42.708;23.286;2023-06-22T13:48:06;24.29;68.25
79698;SHT31;69168;42.708;23.286;2023-06-22T13:50:32;24.35;67.45
79698;SHT31;69168;42.708;23.286;2023-06-22T13:52:57;24.28;65.42
79698;SHT31;69168;42.708;23.286;2023-06-22T13:55:23;24.39;64.75
79698;SHT31;69168;42.708;23.286;2023-06-22T13:57:49;24.22;66.67
79698;SHT31;69168;42.708;23.286;2023-06-22T14:00:15;24.10;67.90
79698;SHT31;69168;42.708;23.286;2023-06-22T14:02:41;24.08;68.77
79698;SHT31;69168;42.708;23.286;2023-06-22T14:05:07;24.08;68.63
79698;SHT31;69168;42.708;23.286;2023-06-22T14:07:33;24.08;68.49
79698;SHT31;69168;42.708;23.286;2023-06-22T14:09:59;24.05;68.14
79698;SHT31;69168;42.708;23.286;2023-06-22T14:12:25;24.16;68.35
79698;SHT31;69168;42.708;23.286;2023-06-22T14:14:51;24.18;68.20
79698;SHT31;69168;42.708;23.286;2023-06-22T14:17:16;24.18;69.05
79698;SHT31;69168;42.708;23.286;2023-06-22T14:19:42;24.15;68.95
79698;SHT31;69168;42.708;23.286;2023-06-22T14:22:07;24.22;68.96
79698;SHT31;69168;42.708;23.286;2023-06-22T14:24:33;24.26;69.20
79698;SHT31;69168;42.708;23.286;2023-06-22T14:26:58;24.37;69.42
79698;SHT31;69168;42.708;23.286;2023-06-22T14:29:25;24.41;69.70
79698;SHT31;69168;42.708;23.286;2023-06-22T14:31:50;24.44;69.31
79698;SHT31;69168;42.708;23.286;2023-06-22T14:34:16;24.53;68.54
79698;SHT31;69168;42.708;23.286;2023-06-22T14:36:42;24.74;66.57
79698;SHT31;69168;42.708;23.286;2023-06-22T14:39:08;24.77;66.78
79698;SHT31;69168;42.708;23.286;2023-06-22T14:41:34;24.81;67.55
79698;SHT31;69168;42.708;23.286;2023-06-22T14:43:59;24.30;70.22
79698;SHT31;69168;42.708;23.286;2023-06-22T14:46:25;24.08;70.49
79698;SHT31;69168;42.708;23.286;2023-06-22T14:48:50;24.10;70.28
79698;SHT31;69168;42.708;23.286;2023-06-22T14:51:16;24.16;70.76
79698;SHT31;69168;42.708;23.286;2023-06-22T14:53:42;24.35;70.38
79698;SHT31;69168;42.708;23.286;2023-06-22T14:56:08;24.40;70.51
79698;SHT31;69168;42.708;23.286;2023-06-22T14:58:34;24.52;69.29
79698;SHT31;69168;42.708;23.286;2023-06-22T15:01:04;24.73;68.57
79698;SHT31;69168;42.708;23.286;2023-06-22T15:03:34;24.85;68.07
79698;SHT31;69168;42.708;23.286;2023-06-22T15:06:01;24.78;68.62
79698;SHT31;69168;42.708;23.286;2023-06-22T15:08:27;24.65;69.07
79698;SHT31;69168;42.708;23.286;2023-06-22T15:10:52;24.46;69.33
79698;SHT31;69168;42.708;23.286;2023-06-22T15:13:18;24.40;69.86
79698;SHT31;69168;42.708;23.286;2023-06-22T15:15:46;24.44;69.28
79698;SHT31;69168;42.708;23.286;2023-06-22T15:18:13;24.43;68.99